Time;durP1;ratioP1;P1;durP2;ratioP2;P2;SDS_P1;SDS_P2;PMS_P1;PMS_P2;Temp;Humidity;BMP_temperature;BMP_pressure;BME280_temperature;BME280_humidity;BME280_pressure;Samples;Min_cycle;Max_cycle;Signal;HPM_P1;HPM_P2
2024/01/08 00:00:19;;;;;;;5.97;3.17;;;;;;;-1.25;100.00;96471.16;5037939;28;20211;-68
2024/01/08 00:02:47;;;;;;;9.43;3.10;;;;;;;-1.18;100.00;96473.25;5037371;28;20225;-68
2024/01/08 00:05:15;;;;;;;5.73;2.97;;;;;;;-1.09;100.00;96471.84;5037716;28;20502;-68
2024/01/08 00:07:41;;;;;;;5.63;2.93;;;;;;;-1.11;100.00;96474.53;5037408;28;20208;-67
2024/01/08 00:10:09;;;;;;;8.37;3.07;;;;;;;-1.33;100.00;96478.63;5038076;28;20204;-67
2024/01/08 00:12:35;;;;;;;5.23;2.90;;;;;;;-1.21;100.00;96467.47;5037297;28;20212;-67
2024/01/08 00:15:03;;;;;;;7.00;3.23;;;;;;;-1.38;100.00;96482.44;5036946;28;20218;-68
2024/01/08 00:17:29;;;;;;;5.17;2.83;;;;;;;-1.22;100.00;96469.22;5037339;28;20213;-68
2024/01/08 00:19:57;;;;;;;4.80;2.80;;;;;;;-1.21;100.00;96473.47;5037236;28;20218;-68
2024/01/08 00:22:24;;;;;;;5.27;3.10;;;;;;;-1.25;100.00;96472.94;5037878;28;20205;-67
2024/01/08 00:24:50;;;;;;;4.00;2.30;;;;;;;-1.30;100.00;96475.81;5036977;28;20221;-67
2024/01/08 00:27:17;;;;;;;6.47;2.60;;;;;;;-1.31;100.00;96475.91;5037681;28;20972;-68
2024/01/08 00:29:43;;;;;;;5.33;2.80;;;;;;;-1.51;100.00;96472.06;5037428;28;20214;-67
2024/01/08 00:32:10;;;;;;;3.63;2.70;;;;;;;-1.21;100.00;96467.47;5036632;28;20228;-68
2024/01/08 00:34:36;;;;;;;5.03;2.87;;;;;;;-1.21;100.00;96472.63;5036650;28;20606;-68
2024/01/08 00:37:04;;;;;;;5.07;3.30;;;;;;;-1.00;100.00;96474.63;5037351;28;20223;-68
2024/01/08 00:39:31;;;;;;;4.33;2.73;;;;;;;-1.25;100.00;96475.53;5036127;28;20208;-68
2024/01/08 00:41:57;;;;;;;4.83;2.63;;;;;;;-1.19;100.00;96476.75;5036643;28;20225;-67
2024/01/08 00:44:23;;;;;;;5.93;2.90;;;;;;;-1.35;100.00;96479.63;5037161;28;20208;-68
2024/01/08 00:46:50;;;;;;;4.27;2.50;;;;;;;-1.43;100.00;96481.91;5036538;28;20583;-67
2024/01/08 00:49:16;;;;;;;4.60;2.60;;;;;;;-1.44;100.00;96485.41;5037197;28;20200;-68
2024/01/08 00:51:44;;;;;;;4.67;2.50;;;;;;;-1.63;100.00;96485.78;5037087;28;20227;-68
2024/01/08 00:54:12;;;;;;;4.90;2.60;;;;;;;-1.67;100.00;96494.66;5036227;28;20208;-67
2024/01/08 00:56:38;;;;;;;5.33;3.30;;;;;;;-1.64;100.00;96488.47;5035752;28;20355;-67
2024/01/08 00:59:05;;;;;;;4.83;2.60;;;;;;;-1.63;100.00;96501.28;5037585;28;20204;-67
2024/01/08 01:01:31;;;;;;;5.57;2.83;;;;;;;-1.43;100.00;96500.00;5036633;28;20219;-67
2024/01/08 01:03:59;;;;;;;5.20;3.00;;;;;;;-1.34;100.00;96491.63;5035348;28;20208;-67
2024/01/08 01:06:25;;;;;;;3.77;2.20;;;;;;;-1.46;100.00;96495.03;5037821;28;20224;-67
2024/01/08 01:08:52;;;;;;;6.00;2.27;;;;;;;-1.41;100.00;96500.69;5036359;28;20241;-68
2024/01/08 01:11:20;;;;;;;3.77;2.40;;;;;;;-1.44;100.00;96500.91;5036200;28;20239;-67
2024/01/08 01:13:46;;;;;;;5.90;3.00;;;;;;;-1.53;100.00;96509.25;5036168;28;20347;-68
2024/01/08 01:16:13;;;;;;;4.57;2.43;;;;;;;-1.79;100.00;96504.91;5037268;28;20224;-67
2024/01/08 01:18:39;;;;;;;3.97;2.30;;;;;;;-1.78;100.00;96512.56;5035745;28;20299;-67
2024/01/08 01:21:06;;;;;;;4.47;2.33;;;;;;;-1.70;100.00;96514.66;5036267;28;20196;-67
2024/01/08 01:23:33;;;;;;;4.43;2.63;;;;;;;-1.72;100.00;96512.19;5035659;28;20217;-67
2024/01/08 01:25:59;;;;;;;5.73;2.97;;;;;;;-1.70;100.00;96512.91;5035867;28;20316;-67
2024/01/08 01:28:27;;;;;;;5.83;3.03;;;;;;;-1.61;100.00;96514.09;5036721;28;20216;-68
2024/01/08 01:30:54;;;;;;;4.90;2.67;;;;;;;-1.73;100.00;96520.84;5036442;28;20260;-68
2024/01/08 01:33:20;;;;;;;4.77;2.50;;;;;;;-1.70;100.00;96525.81;5035822;28;20207;-68
2024/01/08 01:35:47;;;;;;;5.50;2.97;;;;;;;-1.84;100.00;96527.63;5035818;28;20236;-68
2024/01/08 01:38:15;;;;;;;6.73;2.90;;;;;;;-1.88;100.00;96520.16;5036523;28;20575;-68
2024/01/08 01:40:41;;;;;;;4.50;3.00;;;;;;;-1.80;100.00;96534.25;5036259;28;20206;-68
2024/01/08 01:43:21;;;;;;;5.57;2.90;;;;;;;-1.69;100.00;96527.47;5036388;28;20314;-67
2024/01/08 01:45:50;;;;;;;4.20;2.77;;;;;;;-1.94;100.00;96523.94;5035489;28;20234;-67
2024/01/08 01:48:16;;;;;;;5.17;3.03;;;;;;;-2.04;100.00;96535.75;5036259;28;20245;-67
2024/01/08 01:50:43;;;;;;;4.73;2.87;;;;;;;-2.12;100.00;96532.81;5036289;28;20232;-69
2024/01/08 01:53:10;;;;;;;6.67;2.60;;;;;;;-2.13;100.00;96532.94;5036011;28;20197;-67
2024/01/08 01:55:36;;;;;;;4.83;3.10;;;;;;;-2.18;100.00;96529.78;5035686;28;20223;-68
2024/01/08 01:58:04;;;;;;;5.17;2.97;;;;;;;-2.22;100.00;96530.91;5036078;28;20220;-68
2024/01/08 02:00:30;;;;;;;4.73;2.67;;;;;;;-2.14;100.00;96534.69;5036059;28;20711;-68
2024/01/08 02:02:58;;;;;;;3.97;2.60;;;;;;;-2.03;100.00;96537.44;5036178;28;20301;-68
2024/01/08 02:05:25;;;;;;;3.77;2.50;;;;;;;-2.17;100.00;96537.44;5035610;28;20226;-68
2024/01/08 02:07:53;;;;;;;4.50;2.40;;;;;;;-2.33;100.00;96538.47;5038095;28;20211;-67
2024/01/08 02:10:20;;;;;;;3.90;2.30;;;;;;;-2.40;100.00;96530.25;5040476;28;20202;-68
2024/01/08 02:12:47;;;;;;;4.60;2.80;;;;;;;-2.16;100.00;96527.97;5039980;28;20226;-68
2024/01/08 02:15:13;;;;;;;5.70;3.00;;;;;;;-2.11;100.00;96523.34;5039006;28;20925;-68
2024/01/08 02:17:39;;;;;;;4.40;2.27;;;;;;;-2.19;100.00;96523.81;5039481;28;20210;-67
2024/01/08 02:20:08;;;;;;;3.70;2.70;;;;;;;-1.97;100.00;96521.56;5039628;28;20553;-68
2024/01/08 02:22:40;;;;;;;4.23;2.70;;;;;;;-2.16;100.00;96533.94;5041166;28;20306;-68
2024/01/08 02:25:07;;;;;;;3.87;2.37;;;;;;;-2.28;100.00;96526.13;5041839;28;20222;-68
2024/01/08 02:27:34;;;;;;;3.97;2.30;;;;;;;-2.17;100.00;96528.88;5044977;28;20214;-67
2024/01/08 02:30:01;;;;;;;5.97;2.73;;;;;;;-2.23;100.00;96535.25;5045252;28;20590;-68
2024/01/08 02:32:27;;;;;;;4.40;2.60;;;;;;;-2.07;100.00;96535.97;5041585;28;20230;-68
2024/01/08 02:34:54;;;;;;;4.33;2.50;;;;;;;-2.33;100.00;96523.84;5038912;28;20232;-68
2024/01/08 02:37:20;;;;;;;4.53;2.53;;;;;;;-2.18;100.00;96522.88;5039718;28;21140;-67
2024/01/08 02:39:48;;;;;;;5.10;2.80;;;;;;;-2.10;100.00;96528.41;5039790;28;20201;-67
2024/01/08 02:42:14;;;;;;;4.03;2.57;;;;;;;-2.20;100.00;96523.88;5039848;28;20194;-68
2024/01/08 02:44:41;;;;;;;4.97;2.37;;;;;;;-1.93;100.00;96533.34;5038867;28;20251;-67
2024/01/08 02:47:08;;;;;;;3.83;2.30;;;;;;;-2.10;100.00;96525.84;5037930;28;20205;-68
2024/01/08 02:49:34;;;;;;;4.43;2.60;;;;;;;-2.01;100.00;96530.44;5039672;28;20229;-67
2024/01/08 02:52:01;;;;;;;5.37;2.80;;;;;;;-1.77;100.00;96529.72;5038057;28;20238;-67
2024/01/08 02:54:27;;;;;;;3.83;2.53;;;;;;;-1.85;100.00;96525.94;5038918;28;20217;-68
2024/01/08 02:56:55;;;;;;;3.60;2.10;;;;;;;-1.74;100.00;96529.53;5038530;28;20211;-67
2024/01/08 02:59:21;;;;;;;4.43;2.70;;;;;;;-2.14;100.00;96528.69;5039190;28;20206;-67
2024/01/08 03:01:48;;;;;;;4.57;2.87;;;;;;;-1.98;100.00;96524.25;5039185;28;21029;-67
2024/01/08 03:04:15;;;;;;;5.00;2.73;;;;;;;-1.90;100.00;96532.34;5036970;28;20213;-68
2024/01/08 03:06:41;;;;;;;5.00;2.73;;;;;;;-2.02;100.00;96533.94;5039224;28;20340;-68
2024/01/08 03:09:08;;;;;;;3.07;2.30;;;;;;;-2.03;100.00;96534.03;5038424;28;20215;-67
2024/01/08 03:11:34;;;;;;;4.57;2.60;;;;;;;-2.05;100.00;96531.53;5038879;28;20241;-67
2024/01/08 03:14:02;;;;;;;4.53;2.50;;;;;;;-1.78;100.00;96537.56;5037964;28;20215;-67
2024/01/08 03:16:28;;;;;;;4.13;2.50;;;;;;;-1.62;100.00;96543.41;5038768;28;20771;-68
2024/01/08 03:18:55;;;;;;;4.87;2.67;;;;;;;-1.86;100.00;96534.63;5037581;28;20207;-68
2024/01/08 03:21:22;;;;;;;4.23;2.70;;;;;;;-1.67;100.00;96545.47;5038959;28;20209;-68
2024/01/08 03:23:48;;;;;;;3.80;2.20;;;;;;;-1.86;100.00;96539.78;5038521;28;20212;-68
2024/01/08 03:26:15;;;;;;;3.53;2.37;;;;;;;-1.89;100.00;96542.56;5038127;28;20227;-68
2024/01/08 03:28:41;;;;;;;4.50;2.63;;;;;;;-1.81;100.00;96550.66;5038684;28;20234;-67
2024/01/08 03:31:09;;;;;;;3.27;2.40;;;;;;;-1.84;100.00;96540.53;5038665;28;20198;-67
2024/01/08 03:33:36;;;;;;;3.57;2.17;;;;;;;-1.77;100.00;96534.91;5038245;28;20437;-67
2024/01/08 03:36:02;;;;;;;3.93;2.17;;;;;;;-1.80;100.00;96539.41;5037605;28;20228;-67
2024/01/08 03:38:29;;;;;;;3.57;2.33;;;;;;;-1.98;100.00;96544.91;5038732;28;20219;-68
2024/01/08 03:40:56;;;;;;;4.63;2.40;;;;;;;-1.78;100.00;96535.00;5038312;28;20209;-67
2024/01/08 03:43:22;;;;;;;4.97;2.50;;;;;;;-1.56;100.00;96538.69;5038118;28;20198;-67
2024/01/08 03:45:49;;;;;;;5.27;2.87;;;;;;;-1.74;100.00;96536.44;5038492;28;20226;-67
2024/01/08 03:48:17;;;;;;;3.37;2.40;;;;;;;-1.69;100.00;96537.00;5037698;28;20878;-68
2024/01/08 03:50:43;;;;;;;3.60;2.23;;;;;;;-1.76;100.00;96535.72;5037987;28;20653;-68
2024/01/08 03:53:10;;;;;;;4.60;2.67;;;;;;;-1.80;100.00;96535.06;5037222;28;20231;-68
2024/01/08 03:55:37;;;;;;;3.63;2.43;;;;;;;-1.80;100.00;96544.56;5037913;28;20368;-67
2024/01/08 03:58:04;;;;;;;4.23;2.47;;;;;;;-1.86;100.00;96539.78;5037396;28;20310;-67
2024/01/08 04:00:31;;;;;;;6.13;3.07;;;;;;;-1.95;100.00;96537.78;5038562;28;20204;-67
2024/01/08 04:02:57;;;;;;;4.90;3.20;;;;;;;-1.80;100.00;96547.16;5037454;28;20208;-68
2024/01/08 04:05:25;;;;;;;4.07;2.40;;;;;;;-1.85;100.00;96543.22;5037369;28;20223;-68
2024/01/08 04:07:52;;;;;;;4.53;2.60;;;;;;;-2.00;100.00;96542.38;5037345;28;20210;-67
2024/01/08 04:10:18;;;;;;;4.50;2.63;;;;;;;-1.88;100.00;96548.53;5038027;28;20206;-68
2024/01/08 04:12:45;;;;;;;3.63;2.27;;;;;;;-1.96;100.00;96549.03;5038093;28;20228;-67
2024/01/08 04:15:11;;;;;;;6.07;3.03;;;;;;;-1.78;100.00;96540.16;5036307;28;20234;-66
2024/01/08 04:17:38;;;;;;;4.63;2.60;;;;;;;-1.85;100.00;96546.63;5037286;28;20205;-66
2024/01/08 04:20:05;;;;;;;5.50;2.77;;;;;;;-1.61;100.00;96540.72;5037813;28;20218;-66
2024/01/08 04:22:33;;;;;;;4.10;2.67;;;;;;;-1.71;100.00;96555.16;5037577;28;20203;-66
2024/01/08 04:25:00;;;;;;;5.20;2.70;;;;;;;-1.84;100.00;96553.44;5036622;28;20231;-65
2024/01/08 04:27:26;;;;;;;4.43;2.60;;;;;;;-2.00;100.00;96557.88;5037425;28;20213;-65
2024/01/08 04:29:53;;;;;;;4.57;2.77;;;;;;;-1.97;100.00;96552.53;5036444;28;20204;-65
2024/01/08 04:32:19;;;;;;;4.00;2.60;;;;;;;-1.84;100.00;96550.03;5037050;28;21267;-65
2024/01/08 04:34:46;;;;;;;5.33;2.80;;;;;;;-2.08;100.00;96552.38;5037608;28;20226;-65
2024/01/08 04:37:12;;;;;;;5.60;2.73;;;;;;;-1.94;100.00;96562.69;5036850;28;20210;-65
2024/01/08 04:39:41;;;;;;;4.50;3.13;;;;;;;-1.86;100.00;96568.19;5036791;28;20213;-65
2024/01/08 04:42:07;;;;;;;5.37;3.00;;;;;;;-1.93;100.00;96561.75;5038166;28;21343;-65
2024/01/08 04:44:34;;;;;;;3.30;2.37;;;;;;;-2.06;100.00;96563.44;5037740;28;20226;-66
2024/01/08 04:47:00;;;;;;;6.43;2.80;;;;;;;-2.07;100.00;96556.59;5035758;28;20233;-66
2024/01/08 04:49:27;;;;;;;3.60;2.20;;;;;;;-1.90;100.00;96553.81;5037242;28;20208;-65
2024/01/08 04:51:53;;;;;;;4.60;2.80;;;;;;;-1.83;100.00;96560.28;5037489;28;20213;-66
2024/01/08 04:54:20;;;;;;;4.30;2.67;;;;;;;-1.87;100.00;96556.22;5036294;28;20674;-65
2024/01/08 04:56:48;;;;;;;4.80;2.57;;;;;;;-1.86;100.00;96565.59;5037152;28;20207;-65
2024/01/08 04:59:14;;;;;;;4.23;2.60;;;;;;;-1.98;100.00;96555.22;5037258;28;20204;-66
2024/01/08 05:01:41;;;;;;;4.73;3.10;;;;;;;-1.97;100.00;96556.84;5036822;28;20220;-66
2024/01/08 05:04:06;;;;;;;6.60;2.47;;;;;;;-1.90;100.00;96564.13;5035807;28;20215;-66
2024/01/08 05:06:33;;;;;;;3.90;2.83;;;;;;;-1.80;100.00;96550.56;5037047;28;20227;-65
2024/01/08 05:09:00;;;;;;;4.37;2.80;;;;;;;-1.98;100.00;96557.81;5036096;28;20232;-66
2024/01/08 05:11:27;;;;;;;4.00;2.47;;;;;;;-2.00;100.00;96563.03;5037061;28;20307;-66
2024/01/08 05:13:55;;;;;;;5.07;3.00;;;;;;;-1.83;100.00;96558.50;5036557;28;20228;-68
2024/01/08 05:16:22;;;;;;;4.07;2.63;;;;;;;-1.82;100.00;96562.75;5037012;28;20221;-68
2024/01/08 05:18:48;;;;;;;4.53;2.40;;;;;;;-1.87;100.00;96563.97;5036384;28;20208;-68
2024/01/08 05:21:15;;;;;;;5.43;2.40;;;;;;;-1.88;100.00;96562.31;5036635;28;20298;-68
2024/01/08 05:23:41;;;;;;;3.80;2.47;;;;;;;-1.81;100.00;96563.56;5036593;28;20209;-67
2024/01/08 05:26:08;;;;;;;5.77;3.27;;;;;;;-1.67;100.00;96566.97;5035849;28;20242;-68
2024/01/08 05:28:35;;;;;;;4.47;2.80;;;;;;;-1.85;100.00;96572.44;5036216;28;20209;-68
2024/01/08 05:31:03;;;;;;;4.80;2.70;;;;;;;-1.86;100.00;96573.34;5036809;28;20221;-66
2024/01/08 05:33:29;;;;;;;4.00;2.70;;;;;;;-1.80;100.00;96571.22;5035957;28;20227;-66
2024/01/08 05:35:56;;;;;;;3.63;2.50;;;;;;;-1.77;100.00;96565.03;5036313;28;20231;-65
2024/01/08 05:38:24;;;;;;;4.77;2.43;;;;;;;-1.88;100.00;96566.63;5036650;28;20662;-65
2024/01/08 05:40:50;;;;;;;3.90;2.63;;;;;;;-1.83;100.00;96576.59;5036201;28;20208;-65
2024/01/08 05:43:17;;;;;;;3.70;2.60;;;;;;;-1.80;100.00;96576.38;5035697;28;20206;-66
2024/01/08 05:45:43;;;;;;;3.60;2.20;;;;;;;-1.65;100.00;96580.59;5036741;28;20231;-66
2024/01/08 05:48:11;;;;;;;5.37;3.07;;;;;;;-1.47;100.00;96578.63;5035331;28;20691;-65
2024/01/08 05:50:38;;;;;;;5.83;2.83;;;;;;;-1.65;100.00;96583.19;5035777;28;20212;-66
2024/01/08 05:53:04;;;;;;;5.47;2.87;;;;;;;-1.69;100.00;96586.06;5036639;28;20223;-66
2024/01/08 05:55:31;;;;;;;4.53;2.53;;;;;;;-1.42;100.00;96581.75;5035783;28;20233;-66
2024/01/08 05:57:57;;;;;;;4.57;2.90;;;;;;;-1.56;100.00;96586.97;5035038;28;20217;-66
2024/01/08 06:00:24;;;;;;;5.20;3.07;;;;;;;-1.74;100.00;96582.94;5036014;28;20216;-66
2024/01/08 06:02:51;;;;;;;4.37;2.73;;;;;;;-1.79;100.00;96582.41;5036580;28;20306;-67
2024/01/08 06:05:19;;;;;;;5.57;2.80;;;;;;;-1.58;100.00;96596.53;5034991;28;20605;-67
2024/01/08 06:07:47;;;;;;;6.13;3.03;;;;;;;-1.69;100.00;96588.66;5035938;28;20780;-67
2024/01/08 06:10:14;;;;;;;4.63;2.67;;;;;;;-1.93;100.00;96591.94;5035816;28;20237;-67
2024/01/08 06:12:40;;;;;;;4.37;2.77;;;;;;;-2.04;100.00;96597.72;5035743;28;20230;-67
2024/01/08 06:15:07;;;;;;;4.57;2.97;;;;;;;-1.82;100.00;96593.75;5035464;28;20234;-67
2024/01/08 06:17:34;;;;;;;4.73;2.67;;;;;;;-2.08;100.00;96591.09;5035580;28;20550;-67
2024/01/08 06:20:00;;;;;;;5.20;2.90;;;;;;;-1.78;100.00;96599.56;5035676;28;20214;-67
2024/01/08 06:22:28;;;;;;;4.57;3.20;;;;;;;-1.71;100.00;96595.66;5035819;28;20747;-67
2024/01/08 06:24:55;;;;;;;6.10;2.83;;;;;;;-1.95;100.00;96591.19;5034541;28;20227;-67
2024/01/08 06:27:21;;;;;;;4.93;2.87;;;;;;;-1.91;100.00;96596.03;5035716;28;20197;-67
2024/01/08 06:29:48;;;;;;;5.27;2.97;;;;;;;-1.93;100.00;96592.75;5035827;28;20592;-67
2024/01/08 06:32:14;;;;;;;4.40;2.50;;;;;;;-1.98;100.00;96596.53;5036053;28;20743;-67
2024/01/08 06:34:41;;;;;;;3.60;2.63;;;;;;;-1.92;100.00;96590.97;5035675;28;20338;-67
2024/01/08 06:37:08;;;;;;;5.00;3.13;;;;;;;-1.95;100.00;96592.00;5035160;28;20584;-67
2024/01/08 06:39:36;;;;;;;5.67;2.70;;;;;;;-1.83;100.00;96592.06;5036073;28;20211;-67
2024/01/08 06:42:02;;;;;;;6.20;2.73;;;;;;;-1.94;100.00;96596.25;5035356;28;20206;-67
2024/01/08 06:44:29;;;;;;;5.60;3.30;;;;;;;-1.97;100.00;96590.44;5035119;28;20203;-67
2024/01/08 06:46:55;;;;;;;6.43;3.67;;;;;;;-1.78;100.00;96594.41;5035562;28;20208;-67
2024/01/08 06:49:22;;;;;;;7.13;3.47;;;;;;;-1.64;100.00;96589.19;5035456;28;20204;-67
2024/01/08 06:51:49;;;;;;;6.10;2.90;;;;;;;-1.51;100.00;96597.84;5035365;28;20678;-67
2024/01/08 06:54:15;;;;;;;6.23;3.07;;;;;;;-1.72;100.00;96600.00;5037301;28;20239;-67
2024/01/08 06:56:43;;;;;;;5.50;3.07;;;;;;;-1.56;100.00;96600.69;5040239;28;20211;-67
2024/01/08 06:59:09;;;;;;;5.50;3.10;;;;;;;-1.75;100.00;96605.34;5039256;28;20207;-67
2024/01/08 07:01:36;;;;;;;6.23;3.17;;;;;;;-1.58;100.00;96605.16;5039544;28;20210;-67
2024/01/08 07:04:03;;;;;;;6.43;3.50;;;;;;;-1.78;100.00;96605.53;5039160;28;20208;-67
2024/01/08 07:06:29;;;;;;;6.73;3.13;;;;;;;-1.82;100.00;96603.22;5039590;28;20566;-67
2024/01/08 07:08:56;;;;;;;7.77;4.00;;;;;;;-1.63;100.00;96604.59;5038871;28;20210;-68
2024/01/08 07:11:23;;;;;;;5.37;2.97;;;;;;;-1.82;100.00;96608.38;5039145;28;20209;-68
2024/01/08 07:13:51;;;;;;;5.73;3.27;;;;;;;-1.66;100.00;96607.34;5039256;28;20597;-68
2024/01/08 07:16:19;;;;;;;9.43;4.03;;;;;;;-1.52;100.00;96611.69;5038948;28;20227;-68
2024/01/08 07:18:46;;;;;;;8.20;3.90;;;;;;;-1.69;100.00;96617.06;5039199;28;20583;-68
2024/01/08 07:21:16;;;;;;;7.40;3.47;;;;;;;-1.97;100.00;96613.66;5038616;28;20272;-67
2024/01/08 07:23:44;;;;;;;6.33;3.37;;;;;;;-1.60;100.00;96616.50;5038740;28;20347;-67
2024/01/08 07:26:10;;;;;;;6.97;3.53;;;;;;;-2.03;100.00;96614.06;5038659;28;20231;-67
2024/01/08 07:28:37;;;;;;;6.83;3.07;;;;;;;-1.84;100.00;96624.94;5038484;28;20234;-67
2024/01/08 07:31:05;;;;;;;7.47;3.60;;;;;;;-1.62;100.00;96620.91;5038935;28;20633;-67
2024/01/08 07:33:32;;;;;;;5.17;3.20;;;;;;;-1.97;100.00;96627.41;5038557;28;20219;-68
2024/01/08 07:35:59;;;;;;;7.90;3.40;;;;;;;-1.78;100.00;96621.03;5039178;28;20231;-68
2024/01/08 07:38:25;;;;;;;7.07;3.57;;;;;;;-1.83;100.00;96627.41;5038652;28;20210;-68
2024/01/08 07:40:52;;;;;;;6.93;4.20;;;;;;;-1.89;100.00;96627.78;5038747;28;21025;-68
2024/01/08 07:43:18;;;;;;;7.53;3.90;;;;;;;-1.80;100.00;96624.63;5038786;28;20231;-67
2024/01/08 07:45:45;;;;;;;6.23;3.50;;;;;;;-1.73;100.00;96620.78;5038931;28;20227;-68
2024/01/08 07:48:13;;;;;;;5.77;3.13;;;;;;;-1.60;100.00;96629.41;5037352;28;21091;-67
2024/01/08 07:50:39;;;;;;;5.40;3.27;;;;;;;-1.47;100.00;96631.13;5039220;28;20204;-67
2024/01/08 07:53:06;;;;;;;6.13;3.50;;;;;;;-1.49;100.00;96626.97;5038112;28;20231;-68
2024/01/08 07:55:32;;;;;;;8.77;3.83;;;;;;;-1.66;100.00;96627.19;5037923;28;20224;-68
2024/01/08 07:57:59;;;;;;;6.27;3.50;;;;;;;-1.50;100.00;96630.47;5038700;28;20649;-67
2024/01/08 08:00:25;;;;;;;6.47;3.60;;;;;;;-1.59;100.00;96629.31;5038316;28;20707;-68
2024/01/08 08:02:52;;;;;;;7.03;3.10;;;;;;;-1.64;100.00;96633.13;5038334;28;20213;-67
2024/01/08 08:05:20;;;;;;;7.23;3.33;;;;;;;-1.26;100.00;96634.97;5037783;28;20235;-68
2024/01/08 08:07:46;;;;;;;5.17;3.27;;;;;;;-1.35;100.00;96627.78;5038226;28;20206;-67
2024/01/08 08:10:13;;;;;;;5.93;3.67;;;;;;;-1.31;100.00;96636.16;5038166;28;20209;-68
2024/01/08 08:12:40;;;;;;;5.93;3.03;;;;;;;-1.40;100.00;96635.00;5039472;28;21166;-67
2024/01/08 08:15:07;;;;;;;7.90;3.33;;;;;;;-1.34;100.00;96641.53;5037492;28;20815;-67
2024/01/08 08:17:34;;;;;;;5.63;3.00;;;;;;;-1.45;100.00;96647.38;5037194;28;20848;-67
2024/01/08 08:20:00;;;;;;;4.90;2.83;;;;;;;-1.27;100.00;96637.63;5037228;28;20208;-67
2024/01/08 08:22:28;;;;;;;6.07;3.60;;;;;;;-1.28;100.00;96641.16;5038426;28;20204;-67
2024/01/08 08:24:54;;;;;;;5.80;3.17;;;;;;;-1.22;100.00;96642.41;5037525;28;20220;-67
2024/01/08 08:27:22;;;;;;;7.03;3.50;;;;;;;-1.17;100.00;96655.06;5037303;28;20219;-68
2024/01/08 08:29:48;;;;;;;5.40;3.27;;;;;;;-1.09;100.00;96650.25;5038163;28;20298;-67
2024/01/08 08:32:15;;;;;;;7.10;3.10;;;;;;;-1.13;100.00;96652.19;5037351;28;20202;-67
2024/01/08 08:34:42;;;;;;;4.37;2.73;;;;;;;-1.44;100.00;96659.38;5036907;28;20224;-67
2024/01/08 08:37:09;;;;;;;5.20;3.00;;;;;;;-1.11;100.00;96663.28;5037551;28;20207;-67
2024/01/08 08:39:37;;;;;;;4.87;2.73;;;;;;;-1.04;100.00;96661.94;5037090;28;20225;-67
2024/01/08 08:42:05;;;;;;;5.93;3.13;;;;;;;-0.92;100.00;96660.31;5037220;28;20239;-67
2024/01/08 08:44:32;;;;;;;6.23;3.60;;;;;;;-1.29;100.00;96666.16;5036508;28;20224;-67
2024/01/08 08:46:58;;;;;;;4.50;2.50;;;;;;;-1.19;100.00;96672.41;5037196;28;20213;-67
2024/01/08 08:49:25;;;;;;;6.40;3.50;;;;;;;-0.96;100.00;96671.81;5036974;28;20557;-68
2024/01/08 08:51:52;;;;;;;6.10;3.07;;;;;;;-0.98;100.00;96674.50;5037250;28;20201;-68
2024/01/08 08:54:18;;;;;;;5.23;2.83;;;;;;;-1.00;100.00;96678.09;5035951;28;20224;-68
2024/01/08 08:56:46;;;;;;;4.30;2.60;;;;;;;-0.83;100.00;96670.09;5036966;28;20233;-68
2024/01/08 08:59:13;;;;;;;7.00;2.87;;;;;;;-1.08;100.00;96681.16;5036570;28;20247;-68
2024/01/08 09:01:40;;;;;;;5.67;3.10;;;;;;;-0.94;100.00;96673.38;5037130;28;20208;-67
2024/01/08 09:04:06;;;;;;;4.93;3.07;;;;;;;-1.04;100.00;96676.63;5037025;28;20201;-67
2024/01/08 09:06:34;;;;;;;6.57;3.50;;;;;;;-1.09;100.00;96679.50;5036372;28;20281;-67
2024/01/08 09:09:01;;;;;;;5.17;3.37;;;;;;;-1.13;100.00;96683.22;5036905;28;20241;-68
2024/01/08 09:11:28;;;;;;;6.23;3.40;;;;;;;-1.21;100.00;96687.19;5036304;28;21061;-68
2024/01/08 09:13:56;;;;;;;5.60;3.37;;;;;;;-1.03;100.00;96688.63;5036733;28;21036;-68
2024/01/08 09:16:23;;;;;;;6.07;2.87;;;;;;;-1.07;100.00;96694.91;5036378;28;20712;-68
2024/01/08 09:18:49;;;;;;;5.60;3.23;;;;;;;-1.12;100.00;96695.22;5035833;28;20203;-67
2024/01/08 09:21:17;;;;;;;8.27;3.50;;;;;;;-1.24;100.00;96694.31;5035848;28;20198;-68
2024/01/08 09:23:43;;;;;;;7.93;3.17;;;;;;;-0.87;100.00;96695.31;5036848;28;20205;-67
2024/01/08 09:26:10;;;;;;;7.93;3.43;;;;;;;-0.96;100.00;96693.31;5035920;28;20234;-67
2024/01/08 09:28:37;;;;;;;7.23;3.27;;;;;;;-1.36;100.00;96707.97;5036581;28;20227;-68
2024/01/08 09:31:05;;;;;;;6.77;3.90;;;;;;;-1.23;100.00;96695.03;5036938;28;20205;-67
2024/01/08 09:33:32;;;;;;;5.97;3.23;;;;;;;-0.89;100.00;96701.50;5036371;28;20317;-67
2024/01/08 09:35:59;;;;;;;5.60;2.57;;;;;;;-0.88;100.00;96714.38;5036092;28;21213;-68
2024/01/08 09:38:25;;;;;;;4.33;2.67;;;;;;;-0.94;100.00;96719.91;5036242;28;20222;-67
2024/01/08 09:40:52;;;;;;;6.47;3.50;;;;;;;-1.37;100.00;96719.28;5036763;28;20201;-68
2024/01/08 09:43:19;;;;;;;4.07;2.70;;;;;;;-1.05;100.00;96716.34;5035245;28;20204;-67
2024/01/08 09:45:58;;;;;;;4.60;2.40;;;;;;;-0.89;100.00;96717.88;5037016;28;20223;-68
2024/01/08 09:48:26;;;;;;;5.57;2.83;;;;;;;-1.20;100.00;96714.69;5035626;28;20207;-68
2024/01/08 09:50:53;;;;;;;5.53;3.07;;;;;;;-1.11;100.00;96707.22;5036634;28;20211;-68
2024/01/08 09:53:21;;;;;;;4.40;2.97;;;;;;;-1.16;100.00;96718.75;5035290;28;20288;-68
2024/01/08 09:55:50;;;;;;;5.63;2.70;;;;;;;-0.93;100.00;96715.56;5036373;28;20244;-68
2024/01/08 09:58:23;;;;;;;6.77;3.33;;;;;;;-0.80;100.00;96719.03;5035331;28;20203;-68
2024/01/08 10:00:49;;;;;;;5.57;2.77;;;;;;;-0.95;100.00;96718.25;5035975;28;20230;-68
2024/01/08 10:03:16;;;;;;;7.30;2.70;;;;;;;-1.26;100.00;96716.84;5035801;28;20642;-68
2024/01/08 10:05:44;;;;;;;5.63;2.70;;;;;;;-0.80;100.00;96714.72;5035018;28;20597;-68
2024/01/08 10:08:10;;;;;;;4.47;2.43;;;;;;;-1.10;100.00;96718.38;5035928;28;20200;-68
2024/01/08 10:10:37;;;;;;;4.77;2.67;;;;;;;-1.15;100.00;96716.06;5035150;28;20245;-68
2024/01/08 10:13:04;;;;;;;7.50;2.23;;;;;;;-1.22;100.00;96717.38;5035985;28;20203;-68
2024/01/08 10:15:31;;;;;;;5.37;2.60;;;;;;;-1.00;100.00;96714.31;5034885;28;20235;-68
2024/01/08 10:18:01;;;;;;;7.20;2.83;;;;;;;-0.85;100.00;96711.56;5035687;28;20196;-68
2024/01/08 10:20:28;;;;;;;4.90;2.77;;;;;;;-0.76;100.00;96712.72;5035509;28;20233;-68
2024/01/08 10:23:06;;;;;;;5.27;2.67;;;;;;;-0.86;100.00;96717.66;5035615;28;20690;-69
2024/01/08 10:25:33;;;;;;;3.97;2.07;;;;;;;-1.09;100.00;96714.88;5035371;28;20236;-68
2024/01/08 10:28:00;;;;;;;5.67;2.77;;;;;;;-0.94;100.00;96717.31;5035504;28;20213;-68
2024/01/08 10:30:27;;;;;;;5.53;2.33;;;;;;;-1.09;100.00;96714.88;5039691;28;20681;-68
2024/01/08 10:32:58;;;;;;;5.00;2.83;;;;;;;-1.00;100.00;96717.69;5039377;28;20204;-68
2024/01/08 10:35:25;;;;;;;5.97;3.10;;;;;;;-0.91;100.00;96719.72;5039209;28;20232;-68
2024/01/08 10:37:54;;;;;;;6.00;2.40;;;;;;;-0.93;100.00;96720.72;5040221;28;20207;-69
2024/01/08 10:40:22;;;;;;;5.37;3.03;;;;;;;-0.91;100.00;96717.13;5040188;28;21030;-68
2024/01/08 10:42:49;;;;;;;5.20;2.57;;;;;;;-1.18;100.00;96711.09;5040120;28;20199;-68
2024/01/08 10:45:15;;;;;;;4.07;2.37;;;;;;;-0.97;100.00;96716.69;5039728;28;20230;-68
2024/01/08 10:47:49;;;;;;;4.17;2.63;;;;;;;-0.73;100.00;96715.13;5039265;28;20686;-68
2024/01/08 10:50:19;;;;;;;4.27;2.67;;;;;;;-0.72;100.00;96698.69;5039408;28;20199;-68
2024/01/08 10:52:53;;;;;;;4.90;2.60;;;;;;;-0.81;100.00;96712.22;5039315;28;20207;-68
2024/01/08 10:55:24;;;;;;;5.97;3.10;;;;;;;-0.79;100.00;96707.75;5037227;28;20227;-68
2024/01/08 10:57:56;;;;;;;3.60;2.33;;;;;;;-0.65;100.00;96712.88;5039594;28;20234;-68
2024/01/08 11:00:24;;;;;;;7.80;3.33;;;;;;;-0.88;100.00;96704.03;5039310;28;20209;-68
2024/01/08 11:02:51;;;;;;;5.10;2.43;;;;;;;-0.95;100.00;96707.91;5039459;28;20216;-68
2024/01/08 11:05:20;;;;;;;4.50;2.40;;;;;;;-0.92;100.00;96707.69;5037551;28;20221;-68
2024/01/08 11:07:49;;;;;;;5.23;2.23;;;;;;;-0.96;100.00;96715.75;5039469;28;20237;-68
2024/01/08 11:10:16;;;;;;;5.93;2.73;;;;;;;-1.09;100.00;96705.34;5038629;28;20214;-68
2024/01/08 11:12:52;;;;;;;5.83;2.60;;;;;;;-0.82;100.00;96705.38;5039191;28;20201;-68
2024/01/08 11:15:18;;;;;;;5.00;3.03;;;;;;;-0.95;100.00;96707.91;5038083;28;20226;-68
2024/01/08 11:17:51;;;;;;;6.53;3.23;;;;;;;-0.81;100.00;96700.09;5038038;28;20200;-68
2024/01/08 11:20:43;;;;;;;5.57;3.03;;;;;;;-0.88;100.00;96688.50;5038402;28;20207;-68
2024/01/08 11:23:42;;;;;;;6.10;2.80;;;;;;;-1.01;100.00;96697.94;5038964;28;20284;-68